createdAt,value
2018-05-24T00:00:29.439Z,13.30
2018-05-24T00:02:57.729Z,13.30
2018-05-24T00:05:25.236Z,13.30
2018-05-24T00:07:52.704Z,13.20
2018-05-24T00:10:20.194Z,13.20
2018-05-24T00:12:47.720Z,13.20
2018-05-24T00:15:15.198Z,13.20
2018-05-24T00:17:43.500Z,13.20
2018-05-24T00:20:11.038Z,13.30
2018-05-24T00:22:39.328Z,13.30
2018-05-24T00:25:06.873Z,13.30
2018-05-24T00:27:35.102Z,13.30
2018-05-24T00:30:02.634Z,13.30
2018-05-24T00:32:30.128Z,13.30
2018-05-24T00:34:59.119Z,13.40
2018-05-24T00:37:26.590Z,13.40
2018-05-24T00:39:54.111Z,13.40
2018-05-24T00:42:21.601Z,13.40
2018-05-24T00:44:49.084Z,13.50
2018-05-24T00:47:17.342Z,13.60
2018-05-24T00:49:44.819Z,13.50
2018-05-24T00:52:13.071Z,13.60
2018-05-24T00:54:40.682Z,13.60
2018-05-24T00:57:08.091Z,13.60
2018-05-24T00:59:36.356Z,13.70
2018-05-24T01:02:03.893Z,13.80
2018-05-24T01:04:31.359Z,13.90
2018-05-24T01:06:58.894Z,13.90
2018-05-24T01:09:26.405Z,13.90
2018-05-24T01:11:54.678Z,14.00
2018-05-24T01:14:22.211Z,13.90
2018-05-24T01:16:49.732Z,14.00
2018-05-24T01:19:17.254Z,13.90
2018-05-24T01:21:44.735Z,14.00
2018-05-24T01:24:12.249Z,14.00
2018-05-24T01:26:39.731Z,14.00
2018-05-24T01:29:07.970Z,14.00
2018-05-24T01:31:35.511Z,14.00
2018-05-24T01:34:03.006Z,14.00
2018-05-24T01:36:42.214Z,14.00
2018-05-24T01:39:09.723Z,14.00
2018-05-24T01:41:38.012Z,14.00
2018-05-24T01:44:05.509Z,13.90
2018-05-24T01:46:33.045Z,14.00
2018-05-24T01:49:00.514Z,14.10
2018-05-24T01:51:28.053Z,14.10
2018-05-24T01:53:55.554Z,14.10
2018-05-24T01:56:23.058Z,14.10
2018-05-24T01:58:50.550Z,14.10
2018-05-24T02:01:18.063Z,14.10
2018-05-24T02:03:45.536Z,14.00
2018-05-24T02:06:13.074Z,14.00
2018-05-24T02:08:41.359Z,14.00
2018-05-24T02:11:08.889Z,14.00
2018-05-24T02:13:36.387Z,14.00
2018-05-24T02:16:03.926Z,14.00
2018-05-24T02:18:32.204Z,14.00
2018-05-24T02:21:00.484Z,14.00
2018-05-24T02:23:28.018Z,14.00
2018-05-24T02:25:55.487Z,13.90
2018-05-24T02:28:23.768Z,13.90
2018-05-24T02:30:52.049Z,13.90
2018-05-24T02:33:19.597Z,13.90
2018-05-24T02:35:47.890Z,13.80
2018-05-24T02:38:15.319Z,13.80
2018-05-24T02:40:43.558Z,13.90
2018-05-24T02:43:11.075Z,13.90
2018-05-24T02:45:38.574Z,13.90
2018-05-24T02:48:06.107Z,13.90
2018-05-24T02:50:33.628Z,13.90
2018-05-24T02:53:01.897Z,13.90
2018-05-24T02:55:29.426Z,13.90
2018-05-24T02:57:56.907Z,13.90
2018-05-24T03:00:24.407Z,13.90
2018-05-24T03:02:51.938Z,13.90
2018-05-24T03:05:20.218Z,13.90
2018-05-24T03:07:48.510Z,13.90
2018-05-24T03:10:16.010Z,13.90
2018-05-24T03:12:43.515Z,13.90
2018-05-24T03:15:11.786Z,13.90
2018-05-24T03:17:40.031Z,13.90
2018-05-24T03:20:07.545Z,13.90
2018-05-24T03:22:35.073Z,13.90
2018-05-24T03:25:03.343Z,13.90
2018-05-24T03:27:31.624Z,13.90
2018-05-24T03:29:59.865Z,13.90
2018-05-24T03:32:27.389Z,13.90
2018-05-24T03:34:54.862Z,13.90
2018-05-24T03:37:22.384Z,13.90
2018-05-24T03:39:49.850Z,13.90
2018-05-24T03:42:17.388Z,13.90
2018-05-24T03:44:45.662Z,13.90
2018-05-24T03:47:13.952Z,14.00
2018-05-24T03:49:41.419Z,14.00
2018-05-24T03:52:09.011Z,14.00
2018-05-24T03:54:37.205Z,14.00
2018-05-24T03:57:04.723Z,14.00
2018-05-24T04:00:03.677Z,14.00
2018-05-24T04:02:43.713Z,14.00
2018-05-24T04:05:11.210Z,14.00
2018-05-24T04:07:38.750Z,14.00
2018-05-24T04:10:06.986Z,14.10
2018-05-24T04:12:34.503Z,14.10
2018-05-24T04:15:02.027Z,14.10
2018-05-24T04:17:29.538Z,14.10
2018-05-24T04:19:57.049Z,14.20
2018-05-24T04:22:25.352Z,14.30
2018-05-24T04:24:52.831Z,14.20
2018-05-24T04:27:20.359Z,14.30
2018-05-24T04:29:48.618Z,14.40
2018-05-24T04:32:16.877Z,14.40
2018-05-24T04:34:44.375Z,14.40
2018-05-24T04:37:11.884Z,14.50
2018-05-24T04:39:39.369Z,14.50
2018-05-24T04:42:07.764Z,14.40
2018-05-24T04:44:35.289Z,14.50
2018-05-24T04:47:02.799Z,14.40
2018-05-24T04:49:30.382Z,14.30
2018-05-24T04:51:57.897Z,14.30
2018-05-24T04:54:25.416Z,14.30
2018-05-24T04:56:52.881Z,14.30
2018-05-24T04:59:20.396Z,14.30
2018-05-24T05:01:47.866Z,14.30
2018-05-24T05:04:15.374Z,14.20
2018-05-24T05:06:43.635Z,14.20
2018-05-24T05:09:11.937Z,14.20
2018-05-24T05:11:39.414Z,14.20
2018-05-24T05:14:06.941Z,14.20
2018-05-24T05:16:35.195Z,14.10
2018-05-24T05:19:02.717Z,14.10
2018-05-24T05:21:30.183Z,14.20
2018-05-24T05:23:57.658Z,14.30
2018-05-24T05:26:25.147Z,14.30
2018-05-24T05:28:53.431Z,14.40
2018-05-24T05:31:20.949Z,14.50
2018-05-24T05:33:48.457Z,14.60
2018-05-24T05:36:15.969Z,14.60
2018-05-24T05:38:43.450Z,14.60
2018-05-24T05:41:10.938Z,14.70
2018-05-24T05:43:38.437Z,14.80
2018-05-24T05:46:05.898Z,14.80
2018-05-24T05:48:33.409Z,14.90
2018-05-24T05:51:00.926Z,14.90
2018-05-24T05:53:28.435Z,15.00
2018-05-24T05:55:55.938Z,15.10
2018-05-24T05:58:23.471Z,15.30
2018-05-24T06:00:50.933Z,15.60
2018-05-24T06:03:19.234Z,16.50
2018-05-24T06:05:47.509Z,16.40
2018-05-24T06:08:15.036Z,16.40
2018-05-24T06:10:42.556Z,16.30
2018-05-24T06:13:10.059Z,16.20
2018-05-24T06:15:37.564Z,16.10
2018-05-24T06:18:05.023Z,15.90
2018-05-24T06:20:32.539Z,15.80
2018-05-24T06:23:00.004Z,15.60
2018-05-24T06:25:27.521Z,15.60
2018-05-24T06:27:55.041Z,15.60
2018-05-24T06:30:22.551Z,15.50
2018-05-24T06:32:50.013Z,15.40
2018-05-24T06:35:17.502Z,15.40
2018-05-24T06:37:45.767Z,15.50
2018-05-24T06:40:13.244Z,15.50
2018-05-24T06:42:41.533Z,15.60
2018-05-24T06:45:09.047Z,15.60
2018-05-24T06:47:36.533Z,15.70
2018-05-24T06:50:04.830Z,15.80
2018-05-24T06:52:32.322Z,15.80
2018-05-24T06:54:59.840Z,16.30
2018-05-24T06:57:27.358Z,16.80
2018-05-24T06:59:54.930Z,17.50
2018-05-24T07:02:22.376Z,18.10
2018-05-24T07:04:49.898Z,18.40
2018-05-24T07:07:17.395Z,18.40
2018-05-24T07:09:44.867Z,17.70
2018-05-24T07:12:12.334Z,17.50
2018-05-24T07:14:39.818Z,17.40
2018-05-24T07:17:08.083Z,17.60
2018-05-24T07:19:35.633Z,17.60
2018-05-24T07:22:03.098Z,17.90
2018-05-24T07:24:31.388Z,17.70
2018-05-24T07:26:58.902Z,17.70
2018-05-24T07:29:26.411Z,17.70
2018-05-24T07:31:53.934Z,17.70
2018-05-24T07:34:21.406Z,17.50
2018-05-24T07:36:49.656Z,17.00
2018-05-24T07:39:17.177Z,17.00
2018-05-24T07:41:44.697Z,16.80
2018-05-24T07:44:12.926Z,16.60
2018-05-24T07:46:40.448Z,16.50
2018-05-24T07:49:07.947Z,16.40
2018-05-24T07:51:35.434Z,16.20
2018-05-24T07:54:02.907Z,16.10
2018-05-24T07:56:31.184Z,15.90
2018-05-24T07:58:59.476Z,15.90
2018-05-24T08:01:26.958Z,15.90
2018-05-24T08:03:54.480Z,15.80
2018-05-24T08:06:22.759Z,15.70
2018-05-24T08:08:50.991Z,15.70
2018-05-24T08:11:18.502Z,15.70
2018-05-24T08:13:45.966Z,15.70
2018-05-24T08:16:13.502Z,15.60
2018-05-24T08:18:41.775Z,15.60
2018-05-24T08:21:10.020Z,15.70
2018-05-24T08:23:37.490Z,15.70
2018-05-24T08:26:05.017Z,15.80
2018-05-24T08:28:32.489Z,16.10
2018-05-24T08:31:00.008Z,16.30
2018-05-24T08:33:27.478Z,16.40
2018-05-24T08:35:54.966Z,16.50
2018-05-24T08:38:22.489Z,16.50
2018-05-24T08:40:50.012Z,16.60
2018-05-24T08:43:18.247Z,16.80
2018-05-24T08:45:45.730Z,16.80
2018-05-24T08:48:14.016Z,16.80
2018-05-24T08:50:42.299Z,16.80
2018-05-24T08:53:10.567Z,16.80
2018-05-24T08:55:38.856Z,16.80
2018-05-24T08:58:07.127Z,16.80
2018-05-24T09:00:35.405Z,16.80
2018-05-24T09:03:03.673Z,16.80
2018-05-24T09:05:31.965Z,16.60
2018-05-24T09:07:59.477Z,16.60
2018-05-24T09:10:26.991Z,16.40
2018-05-24T09:12:54.500Z,16.40
2018-05-24T09:15:22.016Z,16.20
2018-05-24T09:17:49.505Z,16.10
2018-05-24T09:20:17.088Z,16.00
2018-05-24T09:22:44.501Z,15.90
2018-05-24T09:25:12.044Z,15.80
2018-05-24T09:27:39.558Z,15.70
2018-05-24T09:30:07.086Z,15.70
2018-05-24T09:32:34.588Z,15.70
2018-05-24T09:35:02.894Z,15.70
2018-05-24T09:37:30.421Z,15.70
2018-05-24T09:39:58.705Z,15.70
2018-05-24T09:42:27.002Z,15.70
2018-05-24T09:44:54.506Z,15.70
2018-05-24T09:47:21.991Z,15.70
2018-05-24T09:49:50.251Z,15.80
2018-05-24T09:52:17.781Z,15.80
2018-05-24T09:54:45.301Z,15.90
2018-05-24T09:57:13.738Z,15.90
2018-05-24T09:59:41.231Z,15.90
2018-05-24T10:02:09.336Z,15.90
2018-05-24T10:04:36.836Z,15.90
2018-05-24T10:07:04.346Z,15.90
2018-05-24T10:09:31.814Z,15.90
2018-05-24T10:11:59.382Z,15.90
2018-05-24T10:14:26.877Z,16.00
2018-05-24T10:16:55.126Z,16.00
2018-05-24T10:19:22.642Z,16.00
2018-05-24T10:21:50.122Z,16.00
2018-05-24T10:24:17.600Z,16.10
2018-05-24T10:26:45.125Z,16.10
2018-05-24T10:29:12.595Z,16.20
2018-05-24T10:31:40.134Z,16.20
2018-05-24T10:34:07.654Z,16.10
2018-05-24T10:36:35.937Z,15.90
2018-05-24T10:39:04.222Z,15.80
2018-05-24T10:41:31.695Z,15.80
2018-05-24T10:43:59.202Z,15.70
2018-05-24T10:46:26.680Z,15.70
2018-05-24T10:48:54.914Z,15.80
2018-05-24T10:51:22.479Z,15.80
2018-05-24T10:53:49.960Z,15.90
2018-05-24T10:56:18.214Z,16.00
2018-05-24T10:58:45.730Z,16.00
2018-05-24T11:01:13.264Z,16.00
2018-05-24T11:03:41.498Z,16.40
2018-05-24T11:08:35.736Z,16.60
2018-05-24T11:11:03.997Z,16.50
2018-05-24T11:13:32.320Z,16.50
2018-05-24T11:15:59.760Z,16.50
2018-05-24T11:18:27.298Z,16.30
2018-05-24T11:20:55.526Z,16.00
2018-05-24T11:23:23.074Z,16.00
2018-05-24T11:25:50.588Z,15.80
2018-05-24T11:28:18.867Z,15.70
2018-05-24T11:30:47.160Z,15.60
2018-05-24T11:33:14.658Z,15.60
2018-05-24T11:35:42.935Z,15.60
2018-05-24T11:38:10.413Z,15.50
2018-05-24T11:40:37.938Z,15.50
2018-05-24T11:43:05.534Z,15.50
2018-05-24T11:45:32.963Z,15.50
2018-05-24T11:48:00.496Z,15.60
2018-05-24T11:50:27.976Z,15.60
2018-05-24T11:52:55.501Z,15.70
2018-05-24T11:55:23.017Z,15.80
2018-05-24T11:57:50.532Z,15.80
2018-05-24T12:00:18.040Z,15.80
2018-05-24T12:02:45.529Z,15.80
2018-05-24T12:05:13.026Z,15.80
2018-05-24T12:07:40.562Z,15.80
2018-05-24T12:10:08.064Z,15.80
2018-05-24T12:12:35.597Z,15.80
2018-05-24T12:15:03.154Z,15.90
2018-05-24T12:17:30.625Z,16.00
2018-05-24T12:19:58.964Z,16.10
2018-05-24T12:22:26.475Z,16.10
2018-05-24T12:24:53.947Z,16.20
2018-05-24T12:27:22.267Z,16.50
2018-05-24T12:29:49.757Z,16.50
2018-05-24T12:32:17.276Z,16.50
2018-05-24T12:34:44.789Z,16.40
2018-05-24T12:37:12.298Z,16.40
2018-05-24T12:39:39.762Z,16.50
2018-05-24T12:42:07.279Z,16.60
2018-05-24T12:44:35.552Z,16.70
2018-05-24T12:47:03.858Z,16.90
2018-05-24T12:49:31.378Z,16.80
2018-05-24T12:51:59.656Z,17.10
2018-05-24T12:54:27.928Z,17.20
2018-05-24T12:56:56.198Z,17.10
2018-05-24T12:59:23.707Z,17.10
2018-05-24T13:01:51.188Z,17.00
2018-05-24T13:04:18.746Z,16.90
2018-05-24T13:06:46.918Z,16.70
2018-05-24T13:09:14.401Z,16.70
2018-05-24T13:11:43.059Z,16.70
2018-05-24T13:14:10.567Z,16.70
2018-05-24T13:16:38.064Z,16.80
2018-05-24T13:19:05.577Z,16.80
2018-05-24T13:21:33.113Z,16.80
2018-05-24T13:24:00.616Z,17.00
2018-05-24T13:26:28.879Z,17.20
2018-05-24T13:28:56.446Z,17.20
2018-05-24T13:31:24.697Z,16.80
2018-05-24T13:33:52.244Z,16.80
2018-05-24T13:36:19.742Z,17.00
2018-05-24T13:38:48.031Z,17.40
2018-05-24T13:41:15.554Z,17.40
2018-05-24T13:43:43.042Z,17.60
2018-05-24T13:46:11.450Z,17.80
2018-05-24T13:48:38.963Z,17.70
2018-05-24T13:51:07.202Z,17.50
2018-05-24T13:53:34.687Z,17.50
2018-05-24T13:56:02.210Z,17.50
2018-05-24T13:58:29.700Z,17.30
2018-05-24T14:00:57.175Z,17.20
2018-05-24T14:03:25.436Z,17.00
2018-05-24T14:05:52.906Z,17.00
2018-05-24T14:08:21.163Z,16.90
2018-05-24T14:10:49.429Z,16.80
2018-05-24T14:13:16.948Z,16.80
2018-05-24T14:15:44.442Z,16.70
2018-05-24T14:18:11.946Z,16.60
2018-05-24T14:20:39.452Z,16.50
2018-05-24T14:23:06.994Z,16.40
2018-05-24T14:25:34.489Z,16.30
2018-05-24T14:28:01.976Z,16.20
2018-05-24T14:30:29.483Z,16.00
2018-05-24T14:32:56.980Z,15.90
2018-05-24T14:35:25.279Z,15.60
2018-05-24T14:37:52.791Z,15.50
2018-05-24T14:40:20.284Z,15.40
2018-05-24T14:42:47.765Z,15.30
2018-05-24T14:45:15.310Z,15.20
2018-05-24T14:47:42.824Z,15.10
2018-05-24T14:50:11.126Z,15.20
2018-05-24T14:52:38.592Z,15.10
2018-05-24T14:55:06.125Z,15.10
2018-05-24T14:57:33.705Z,15.10
2018-05-24T15:00:01.182Z,15.20
2018-05-24T15:02:28.705Z,15.20
2018-05-24T15:04:57.005Z,15.00
2018-05-24T15:07:24.516Z,15.00
2018-05-24T15:09:52.043Z,15.00
2018-05-24T15:12:19.538Z,14.90
2018-05-24T15:14:47.067Z,14.90
2018-05-24T15:17:14.581Z,14.90
2018-05-24T15:19:42.854Z,14.80
2018-05-24T15:22:11.114Z,14.70
2018-05-24T15:24:38.650Z,14.70
2018-05-24T15:27:06.176Z,14.70
2018-05-24T15:29:33.664Z,14.60
2018-05-24T15:32:01.181Z,14.60
2018-05-24T15:34:28.704Z,14.60
2018-05-24T15:36:56.989Z,14.60
2018-05-24T15:39:25.264Z,14.60
2018-05-24T15:41:53.532Z,14.70
2018-05-24T15:44:21.048Z,14.70
2018-05-24T15:46:49.354Z,14.80
2018-05-24T15:49:16.872Z,14.70
2018-05-24T15:51:44.375Z,14.70
2018-05-24T15:54:11.896Z,14.70
2018-05-24T15:56:39.389Z,14.70
2018-05-24T15:59:06.904Z,14.60
2018-05-24T16:01:34.390Z,14.60
2018-05-24T16:04:01.886Z,14.60
2018-05-24T16:06:30.116Z,14.60
2018-05-24T16:08:57.620Z,14.60
2018-05-24T16:11:25.915Z,14.60
2018-05-24T16:13:53.433Z,14.60
2018-05-24T16:16:21.727Z,14.60
2018-05-24T16:18:49.342Z,14.60
2018-05-24T16:21:16.821Z,14.60
2018-05-24T16:23:44.319Z,14.60
2018-05-24T16:26:11.812Z,14.60
2018-05-24T16:28:39.337Z,14.70
2018-05-24T16:31:06.821Z,14.70
2018-05-24T16:33:34.345Z,14.80
2018-05-24T16:36:01.829Z,14.90
2018-05-24T16:38:29.423Z,14.80
2018-05-24T16:40:56.934Z,14.90
2018-05-24T16:43:24.613Z,14.90
2018-05-24T16:45:52.143Z,15.00
2018-05-24T16:48:19.653Z,15.00
2018-05-24T16:50:47.209Z,15.10
2018-05-24T16:53:14.722Z,15.10
2018-05-24T16:55:42.223Z,15.20
2018-05-24T16:58:10.109Z,15.20
2018-05-24T17:00:37.617Z,15.20
2018-05-24T17:03:05.086Z,15.30
2018-05-24T17:05:32.586Z,15.30
2018-05-24T17:08:00.810Z,15.30
2018-05-24T17:10:28.327Z,15.20
2018-05-24T17:12:56.609Z,15.20
2018-05-24T17:15:24.887Z,15.20
2018-05-24T17:17:52.387Z,15.30
2018-05-24T17:20:19.867Z,15.30
2018-05-24T17:22:47.367Z,15.20
2018-05-24T17:25:14.895Z,15.20
2018-05-24T17:27:42.354Z,15.20
2018-05-24T17:30:10.631Z,15.20
2018-05-24T17:32:38.864Z,15.20
2018-05-24T17:35:06.367Z,15.20
2018-05-24T17:37:34.631Z,15.30
2018-05-24T17:40:02.238Z,15.30
2018-05-24T17:42:29.702Z,15.30
2018-05-24T17:44:57.186Z,15.30
2018-05-24T17:47:24.702Z,15.30
2018-05-24T17:49:52.207Z,15.20
2018-05-24T17:52:19.683Z,15.20
2018-05-24T17:54:47.926Z,15.20
2018-05-24T17:57:15.456Z,15.20
2018-05-24T17:59:42.983Z,15.10
2018-05-24T18:02:11.331Z,15.10
2018-05-24T18:04:38.827Z,15.10
2018-05-24T18:07:07.117Z,14.90
2018-05-24T18:09:34.642Z,15.00
2018-05-24T18:12:02.922Z,14.90
2018-05-24T18:14:31.240Z,14.80
2018-05-24T18:16:58.750Z,14.80
2018-05-24T18:19:26.268Z,14.80
2018-05-24T18:21:53.785Z,14.80
2018-05-24T18:24:22.015Z,14.80
2018-05-24T18:26:49.506Z,14.70
2018-05-24T18:29:17.792Z,14.70
2018-05-24T18:31:45.352Z,14.70
2018-05-24T18:34:13.637Z,14.70
2018-05-24T18:36:41.158Z,14.80
2018-05-24T18:39:08.660Z,14.70
2018-05-24T18:41:36.214Z,14.60
2018-05-24T18:44:03.772Z,14.60
2018-05-24T18:46:31.299Z,14.60
2018-05-24T18:48:58.827Z,14.60
2018-05-24T18:51:26.313Z,14.60
2018-05-24T18:53:53.833Z,14.50
2018-05-24T18:56:21.351Z,14.40
2018-05-24T18:58:49.598Z,14.30
2018-05-24T19:01:17.177Z,14.30
2018-05-24T19:03:45.887Z,14.30
2018-05-24T19:06:13.426Z,14.30
2018-05-24T19:08:41.701Z,14.20
2018-05-24T19:11:10.021Z,14.10
2018-05-24T19:13:37.544Z,14.20
2018-05-24T19:16:05.831Z,14.10
2018-05-24T19:18:33.311Z,14.10
2018-05-24T19:21:00.848Z,14.10
2018-05-24T19:23:28.415Z,14.20
2018-05-24T19:25:55.953Z,14.20
2018-05-24T19:28:24.246Z,14.10
2018-05-24T19:30:51.792Z,14.10
2018-05-24T19:33:19.377Z,14.10
2018-05-24T19:35:47.765Z,14.10
2018-05-24T19:38:15.313Z,14.10
2018-05-24T19:40:42.839Z,14.10
2018-05-24T19:43:11.159Z,14.10
2018-05-24T19:45:38.627Z,14.10
2018-05-24T19:48:06.199Z,14.10
2018-05-24T19:50:33.754Z,14.10
2018-05-24T19:53:01.293Z,14.10
2018-05-24T19:55:28.834Z,14.10
2018-05-24T19:57:56.330Z,14.00
2018-05-24T20:00:23.860Z,14.00
2018-05-24T20:02:51.390Z,14.00
2018-05-24T20:05:19.193Z,14.00
2018-05-24T20:07:47.002Z,14.00
2018-05-24T20:10:15.573Z,14.00
2018-05-24T20:12:44.128Z,14.00
2018-05-24T20:15:11.941Z,14.00
2018-05-24T20:17:39.718Z,14.00
2018-05-24T20:20:07.537Z,14.00
2018-05-24T20:22:35.391Z,14.00
2018-05-24T20:25:03.201Z,13.90
2018-05-24T20:27:30.977Z,13.90
2018-05-24T20:29:58.837Z,13.90
2018-05-24T20:32:26.649Z,14.00
2018-05-24T20:34:54.437Z,14.00
2018-05-24T20:37:22.236Z,14.00
2018-05-24T20:39:49.952Z,14.00
2018-05-24T20:42:17.638Z,14.00
2018-05-24T20:44:45.943Z,13.90
2018-05-24T20:47:13.472Z,13.90
2018-05-24T20:49:41.765Z,13.90
2018-05-24T20:52:09.298Z,13.90
2018-05-24T20:54:36.771Z,13.90
2018-05-24T20:57:05.059Z,13.90
2018-05-24T20:59:32.590Z,13.90
2018-05-24T21:02:00.120Z,13.90
2018-05-24T21:04:27.598Z,13.90
2018-05-24T21:06:55.082Z,13.90
2018-05-24T21:09:22.564Z,13.90
2018-05-24T21:11:50.051Z,13.80
2018-05-24T21:14:17.583Z,13.80
2018-05-24T21:16:45.099Z,13.80
2018-05-24T21:19:13.455Z,13.80
2018-05-24T21:21:40.978Z,13.80
2018-05-24T21:24:08.553Z,13.80
2018-05-24T21:26:36.069Z,13.90
2018-05-24T21:29:03.601Z,13.90
2018-05-24T21:31:31.104Z,13.90
2018-05-24T21:33:58.594Z,13.90
2018-05-24T21:36:26.109Z,13.80
2018-05-24T21:38:53.663Z,13.80
2018-05-24T21:41:21.146Z,13.80
2018-05-24T21:43:48.671Z,13.70
2018-05-24T21:46:16.914Z,13.70
2018-05-24T21:48:44.439Z,13.70
2018-05-24T21:51:11.958Z,13.70
2018-05-24T21:53:40.222Z,13.70
2018-05-24T21:56:08.483Z,13.70
2018-05-24T21:58:36.003Z,13.70
2018-05-24T22:01:03.509Z,13.60
2018-05-24T22:03:31.029Z,13.60
2018-05-24T22:05:58.532Z,13.70
2018-05-24T22:08:26.819Z,13.70
2018-05-24T22:10:55.122Z,13.70
2018-05-24T22:13:22.715Z,13.60
2018-05-24T22:15:50.191Z,13.70
2018-05-24T22:18:17.738Z,13.70
2018-05-24T22:20:45.991Z,13.70
2018-05-24T22:23:13.483Z,13.70
2018-05-24T22:25:41.838Z,13.70
2018-05-24T22:28:09.338Z,13.60
2018-05-24T22:30:37.662Z,13.70
2018-05-24T22:33:05.190Z,13.60
2018-05-24T22:35:32.698Z,13.70
2018-05-24T22:38:00.188Z,13.70
2018-05-24T22:40:28.479Z,13.60
2018-05-24T22:42:55.938Z,13.60
2018-05-24T22:45:23.434Z,13.60
2018-05-24T22:47:50.980Z,13.50
2018-05-24T22:50:18.526Z,13.50
2018-05-24T22:52:46.024Z,13.50
2018-05-24T22:55:13.545Z,13.50
2018-05-24T22:57:41.027Z,13.50
2018-05-24T23:00:08.518Z,13.50
2018-05-24T23:02:36.752Z,13.50
2018-05-24T23:05:04.339Z,13.50
2018-05-24T23:07:31.872Z,13.40
2018-05-24T23:10:00.145Z,13.40
2018-05-24T23:12:27.618Z,13.40
2018-05-24T23:14:55.166Z,13.40
2018-05-24T23:17:22.654Z,13.40
2018-05-24T23:19:50.937Z,13.40
2018-05-24T23:22:30.922Z,13.40
2018-05-24T23:24:58.434Z,13.40
2018-05-24T23:27:25.937Z,13.40
2018-05-24T23:29:53.418Z,13.40
2018-05-24T23:32:20.951Z,13.40
2018-05-24T23:34:48.428Z,13.40
2018-05-24T23:37:15.943Z,13.40
2018-05-24T23:39:43.430Z,13.40
2018-05-24T23:42:10.928Z,13.40
2018-05-24T23:44:38.468Z,13.40
2018-05-24T23:47:05.972Z,13.40
2018-05-24T23:49:34.226Z,13.40
2018-05-24T23:52:02.491Z,13.40
2018-05-24T23:54:30.019Z,13.40
2018-05-24T23:56:57.484Z,13.40
2018-05-24T23:59:25.009Z,13.30
